createdAt,value
2022-11-10T00:03:35.159Z,4.68
2022-11-10T00:18:55.088Z,5.43
2022-11-10T00:34:14.922Z,5.25
2022-11-10T00:49:34.819Z,6.05
2022-11-10T01:04:54.585Z,5.00
2022-11-10T01:20:14.398Z,5.38
2022-11-10T01:35:34.193Z,6.03
2022-11-10T01:50:54.051Z,6.00
2022-11-10T02:06:13.958Z,6.15
2022-11-10T02:21:33.769Z,6.72
2022-11-10T02:36:53.692Z,6.72
2022-11-10T02:52:13.592Z,7.18
2022-11-10T03:07:33.404Z,7.97
2022-11-10T03:22:53.252Z,8.20
2022-11-10T03:38:12.990Z,6.70
2022-11-10T03:53:32.826Z,6.80
2022-11-10T04:09:01.865Z,7.35
2022-11-10T04:24:21.677Z,7.90
2022-11-10T04:39:41.570Z,8.43
2022-11-10T04:55:01.261Z,8.85
2022-11-10T05:10:21.138Z,8.68
2022-11-10T05:25:41.126Z,7.93
2022-11-10T05:41:00.993Z,6.93
2022-11-10T05:56:20.906Z,6.60
2022-11-10T06:11:40.923Z,5.30
2022-11-10T06:27:02.239Z,6.23
2022-11-10T06:42:23.151Z,5.37
2022-11-10T06:57:42.939Z,5.30
2022-11-10T07:13:02.724Z,3.75
2022-11-10T07:28:27.304Z,3.65
2022-11-10T07:43:48.348Z,3.30
2022-11-10T07:59:08.251Z,2.88
2022-11-10T08:14:27.979Z,2.55
2022-11-10T08:29:47.914Z,4.93
2022-11-10T08:45:07.961Z,2.60
2022-11-10T09:00:28.638Z,2.05
2022-11-10T09:15:48.847Z,1.52
2022-11-10T09:31:09.308Z,1.30
2022-11-10T09:46:29.461Z,1.60
2022-11-10T10:01:49.521Z,2.42
2022-11-10T10:17:09.569Z,1.40
2022-11-10T10:32:29.455Z,1.80
2022-11-10T10:47:49.468Z,1.30
2022-11-10T11:03:09.441Z,1.47
2022-11-10T11:18:29.568Z,1.47
2022-11-10T11:33:50.434Z,1.23
2022-11-10T11:49:10.369Z,1.60
2022-11-10T12:04:30.404Z,1.10
2022-11-10T12:19:50.606Z,1.10
2022-11-10T12:35:10.318Z,4.35
2022-11-10T12:50:30.151Z,1.95
2022-11-10T13:05:49.940Z,1.50
2022-11-10T13:21:09.973Z,1.60
2022-11-10T13:36:29.845Z,1.55
2022-11-10T13:51:49.796Z,1.40
2022-11-10T14:07:09.761Z,1.50
2022-11-10T14:22:29.525Z,1.42
2022-11-10T14:37:49.711Z,1.33
2022-11-10T14:53:09.686Z,2.20
2022-11-10T15:08:29.371Z,1.70
2022-11-10T15:23:49.286Z,1.63
2022-11-10T15:39:09.287Z,1.30
2022-11-10T15:54:29.129Z,1.50
2022-11-10T16:09:49.161Z,1.60
2022-11-10T16:25:09.041Z,1.55
2022-11-10T16:40:28.856Z,1.00
2022-11-10T16:55:48.731Z,1.45
2022-11-10T17:11:08.525Z,1.65
2022-11-10T17:26:28.464Z,1.75
2022-11-10T17:41:48.448Z,1.90
2022-11-10T17:57:08.303Z,1.80
2022-11-10T18:12:28.256Z,1.50
2022-11-10T18:27:48.666Z,1.27
2022-11-10T18:43:08.732Z,2.28
2022-11-10T18:58:28.861Z,2.47
2022-11-10T19:13:50.052Z,2.40
2022-11-10T19:29:09.840Z,4.87
2022-11-10T19:44:29.844Z,2.50
2022-11-10T19:59:49.891Z,6.57
2022-11-10T20:15:10.978Z,2.55
2022-11-10T20:30:30.996Z,2.08
2022-11-10T20:45:50.966Z,2.90
2022-11-10T21:01:10.789Z,1.88
2022-11-10T21:16:30.643Z,2.03
2022-11-10T21:31:50.643Z,1.88
2022-11-10T21:47:10.491Z,2.47
2022-11-10T22:02:30.447Z,2.33
2022-11-10T22:18:09.129Z,1.40
2022-11-10T22:33:30.546Z,1.40
2022-11-10T22:48:50.807Z,2.00
2022-11-10T23:04:10.598Z,2.10
2022-11-10T23:19:30.544Z,1.92
2022-11-10T23:34:50.623Z,2.20
2022-11-10T23:50:10.421Z,1.90
